Time;durP1;ratioP1;P1;durP2;ratioP2;P2;SDS_P1;SDS_P2;PMS_P1;PMS_P2;Temp;Humidity;BMP_temperature;BMP_pressure;BME280_temperature;BME280_humidity;BME280_pressure;Samples;Min_cycle;Max_cycle;Signal;HPM_P1;HPM_P2
2022/04/01 00:00:01;;;;;;;26.33;8.23;;;384.30;2329.60;;;;;;5112563;28;20028;-84
2022/04/01 00:02:32;;;;;;;30.73;12.25;;;384.30;2329.60;;;;;;5112863;28;20064;-83
2022/04/01 00:08:56;;;;;;;24.30;10.23;;;384.40;2329.60;;;;;;5131067;28;20026;-85
2022/04/01 00:11:23;;;;;;;22.42;8.23;;;384.40;2329.60;;;;;;5124503;28;20023;-83
2022/04/01 00:13:49;;;;;;;22.52;7.68;;;384.40;2329.60;;;;;;5134272;28;20051;-84
2022/04/01 00:16:22;;;;;;;25.60;8.55;;;358.80;2329.60;;;;;;5134725;28;20012;-85
2022/04/01 00:18:49;;;;;;;22.17;7.82;;;384.30;2329.60;;;;;;5121227;28;20081;-86
2022/04/01 00:21:16;;;;;;;17.10;7.38;;;384.20;2329.60;;;;;;5109323;28;20073;-85
2022/04/01 00:23:44;;;;;;;19.33;7.05;;;384.20;2329.60;;;;;;5110535;28;20111;-85
2022/04/01 00:26:10;;;;;;;19.65;7.15;;;384.20;2329.60;;;;;;5079602;28;20337;-84
2022/04/01 00:28:38;;;;;;;15.45;7.13;;;384.20;2329.60;;;;;;5095519;28;20020;-83
2022/04/01 00:31:04;;;;;;;22.35;8.38;;;384.20;2329.60;;;;;;5095831;28;20073;-87
2022/04/01 00:33:41;;;;;;;17.75;6.68;;;384.30;2329.60;;;;;;5095417;28;20031;-84
2022/04/01 00:36:40;;;;;;;17.42;7.10;;;384.20;2329.60;;;;;;5094969;28;20008;-86
2022/04/01 00:39:21;;;;;;;20.35;7.07;;;384.20;2329.60;;;;;;5096082;28;20094;-84
2022/04/01 00:41:49;;;;;;;28.30;10.57;;;384.20;2329.60;;;;;;5094795;28;20551;-84
2022/04/01 00:44:41;;;;;;;22.95;10.25;;;384.20;2329.60;;;;;;5095176;28;20113;-83
2022/04/01 00:47:16;;;;;;;17.23;7.07;;;384.10;2329.60;;;;;;5096344;28;20048;-85
2022/04/01 00:49:44;;;;;;;24.73;8.75;;;384.10;2329.60;;;;;;5094837;28;20465;-83
2022/04/01 00:52:16;;;;;;;20.75;8.25;;;384.10;2329.60;;;;;;5095047;28;20483;-85
2022/04/01 00:54:43;;;;;;;22.95;10.90;;;384.20;2329.60;;;;;;5094813;28;20032;-84
2022/04/01 00:57:14;;;;;;;17.77;7.30;;;384.20;2329.60;;;;;;5094484;28;20027;-84
2022/04/01 00:59:40;;;;;;;18.88;7.03;;;384.10;2329.60;;;;;;5094994;28;20035;-84
2022/04/01 01:02:21;;;;;;;17.20;6.72;;;384.10;2329.60;;;;;;5094755;28;20052;-85
2022/04/01 01:05:03;;;;;;;24.73;7.55;;;384.10;2329.60;;;;;;5094812;28;20077;-85
2022/04/01 01:07:30;;;;;;;19.88;7.03;;;384.60;2329.60;;;;;;5078472;28;20028;-84
2022/04/01 01:09:57;;;;;;;23.60;7.75;;;384.40;2329.60;;;;;;5094419;28;20456;-84
2022/04/01 01:12:59;;;;;;;18.55;8.45;;;384.10;2329.60;;;;;;5096143;28;20047;-83
2022/04/01 01:15:27;;;;;;;22.73;8.50;;;384.20;2329.60;;;;;;5088588;28;20120;-84
2022/04/01 01:17:54;;;;;;;18.50;7.47;;;384.20;2329.60;;;;;;5097728;28;20019;-85
2022/04/01 01:20:20;;;;;;;21.02;7.82;;;384.20;2329.60;;;;;;5097888;28;20024;-84
2022/04/01 01:22:49;;;;;;;20.90;8.90;;;384.30;2329.60;;;;;;5097772;28;20045;-83
2022/04/01 01:25:35;;;;;;;28.98;8.55;;;384.20;2329.60;;;;;;5098535;28;20038;-84
2022/04/01 01:28:14;;;;;;;26.67;8.95;;;384.40;2329.60;;;;;;5097570;28;20443;-84
2022/04/01 01:30:41;;;;;;;24.92;8.20;;;384.30;2329.60;;;;;;5097393;28;20110;-84
2022/04/01 01:33:07;;;;;;;36.20;9.63;;;384.30;2329.60;;;;;;5097415;28;20023;-84
2022/04/01 01:35:34;;;;;;;34.13;10.68;;;384.30;2329.60;;;;;;5097308;28;20424;-84
2022/04/01 01:38:01;;;;;;;29.02;9.15;;;384.40;2329.60;;;;;;5096212;28;20015;-86
2022/04/01 01:40:28;;;;;;;30.63;11.35;;;384.40;2329.60;;;;;;5097371;28;20086;-84
2022/04/01 01:42:57;;;;;;;26.60;10.05;;;384.40;2329.60;;;;;;5080025;28;20028;-84
2022/04/01 01:45:24;;;;;;;51.00;18.30;;;384.40;2329.60;;;;;;5097186;28;20112;-83
2022/04/01 01:47:50;;;;;;;42.40;15.10;;;384.40;2329.60;;;;;;5082466;28;20030;-84
2022/04/01 01:56:17;;;;;;;31.13;10.98;;;384.30;2329.60;;;;;;5115699;28;20022;-82
2022/04/01 01:58:51;;;;;;;35.53;11.20;;;384.30;2329.60;;;;;;5096439;28;20031;-85
2022/04/01 02:01:50;;;;;;;32.63;11.05;;;384.30;2329.60;;;;;;5096873;28;20029;-82
2022/04/01 02:04:16;;;;;;;35.10;9.63;;;384.30;2329.60;;;;;;5097026;28;20020;-84
2022/04/01 02:06:42;;;;;;;37.45;10.60;;;384.20;2329.60;;;;;;5079591;28;20019;-83
2022/04/01 02:09:11;;;;;;;35.17;10.27;;;384.30;2329.60;;;;;;5096849;28;20019;-84
2022/04/01 02:11:45;;;;;;;34.15;10.93;;;384.30;2329.60;;;;;;5096811;28;20023;-83
2022/04/01 02:14:37;;;;;;;37.88;11.73;;;384.20;2329.60;;;;;;5096067;28;20035;-83
2022/04/01 02:17:24;;;;;;;30.48;11.38;;;384.20;2329.60;;;;;;5096558;28;20383;-84
2022/04/01 02:19:55;;;;;;;34.55;11.77;;;384.20;2329.60;;;;;;5094127;28;20020;-82
2022/04/01 02:22:22;;;;;;;38.58;14.00;;;384.20;2329.60;;;;;;5096544;28;20020;-83
2022/04/01 02:24:57;;;;;;;46.85;15.63;;;384.20;2329.60;;;;;;5096598;28;20101;-83
2022/04/01 02:27:37;;;;;;;84.03;39.28;;;384.30;2329.60;;;;;;5112810;28;20068;-84
2022/04/01 02:30:10;;;;;;;92.90;39.97;;;384.30;2329.60;;;;;;5096470;28;20485;-84
2022/04/01 02:33:03;;;;;;;92.25;38.83;;;384.20;2329.60;;;;;;5114731;28;20024;-84
2022/04/01 02:35:30;;;;;;;42.05;17.75;;;384.20;2329.60;;;;;;5077780;28;20469;-84
2022/04/01 02:38:07;;;;;;;40.00;14.40;;;384.20;2329.60;;;;;;5094081;28;20019;-84
2022/04/01 02:40:34;;;;;;;37.88;11.45;;;384.20;2329.60;;;;;;5096130;28;20012;-81
2022/04/01 02:43:05;;;;;;;31.65;10.25;;;384.30;2329.60;;;;;;5095201;28;20030;-83
2022/04/01 02:45:53;;;;;;;41.78;12.10;;;384.30;2329.60;;;;;;5080034;28;20034;-81
2022/04/01 02:48:40;;;;;;;32.90;10.43;;;384.30;2329.60;;;;;;5095646;28;20027;-82
2022/04/01 02:51:39;;;;;;;41.28;11.75;;;384.20;2329.60;;;;;;5080135;28;20066;-83
2022/04/01 02:58:18;;;;;;;37.13;11.40;;;384.10;2329.60;;;;;;5071473;28;20457;-82
2022/04/01 03:00:49;;;;;;;40.42;10.93;;;384.10;2329.60;;;;;;5014001;28;20258;-83
2022/04/01 03:03:21;;;;;;;36.15;11.80;;;384.00;2329.60;;;;;;5034745;28;20037;-83
2022/04/01 03:06:01;;;;;;;39.47;12.55;;;384.00;2329.60;;;;;;5073312;28;20055;-81
2022/04/01 03:09:29;;;;;;;39.90;10.95;;;384.00;2329.60;;;;;;5114048;28;20023;-82
2022/04/01 03:11:30;;;;;;;44.25;10.68;;;384.00;2329.60;;;;;;5078038;28;20028;-84
2022/04/01 03:13:58;;;;;;;41.70;11.85;;;384.00;2329.60;;;;;;5094522;28;20106;-82
2022/04/01 03:16:29;;;;;;;39.55;11.95;;;384.10;2329.60;;;;;;5095514;28;20073;-84
2022/04/01 03:18:57;;;;;;;49.77;12.67;;;384.00;2329.60;;;;;;5095807;28;20106;-83
2022/04/01 03:21:24;;;;;;;46.38;11.30;;;384.10;2329.60;;;;;;5079045;28;20252;-82
2022/04/01 03:28:01;;;;;;;54.72;12.35;;;384.10;2329.60;;;;;;5079341;28;20153;-82
2022/04/01 03:30:31;;;;;;;38.40;10.75;;;384.20;2329.60;;;;;;5093003;28;20463;-83
2022/04/01 03:33:14;;;;;;;36.78;11.43;;;384.20;2329.60;;;;;;5096216;28;20032;-84
2022/04/01 03:35:41;;;;;;;49.92;14.18;;;384.20;2329.60;;;;;;5095498;28;20044;-82
2022/04/01 03:38:10;;;;;;;47.92;13.45;;;384.20;2329.60;;;;;;5095197;28;20011;-81
2022/04/01 03:40:40;;;;;;;47.85;12.55;;;384.20;2329.60;;;;;;5094673;28;20502;-81
2022/04/01 03:43:06;;;;;;;38.80;12.48;;;384.20;2329.60;;;;;;5095244;28;20032;-83
2022/04/01 03:45:34;;;;;;;47.55;13.23;;;384.20;2329.60;;;;;;5095240;28;20034;-83
2022/04/01 03:48:08;;;;;;;46.33;13.55;;;384.30;2329.60;;;;;;5095443;28;20026;-83
2022/04/01 03:50:39;;;;;;;40.53;12.20;;;384.30;2329.60;;;;;;5113369;28;20024;-84
2022/04/01 03:53:08;;;;;;;49.75;13.50;;;384.30;2329.60;;;;;;5095379;28;20459;-83
2022/04/01 03:55:37;;;;;;;45.05;14.52;;;384.30;2329.60;;;;;;5095441;28;20116;-82
2022/04/01 03:58:14;;;;;;;46.92;12.90;;;384.20;2329.60;;;;;;5095108;28;20367;-83
2022/04/01 04:00:45;;;;;;;42.47;11.70;;;384.20;2329.60;;;;;;5097656;28;20077;-83
2022/04/01 04:03:14;;;;;;;55.90;13.00;;;384.20;2329.60;;;;;;5099564;28;20019;-84
2022/04/01 04:05:43;;;;;;;35.70;11.13;;;384.10;2329.60;;;;;;5098920;28;20019;-83
2022/04/01 04:08:11;;;;;;;32.95;12.40;;;384.10;2329.60;;;;;;5099116;28;20455;-82
2022/04/01 04:10:38;;;;;;;42.72;15.43;;;384.10;2329.60;;;;;;5099181;28;20051;-84
2022/04/01 04:13:15;;;;;;;39.70;14.45;;;384.20;2329.60;;;;;;5098355;28;20475;-83
2022/04/01 04:15:51;;;;;;;47.50;13.23;;;384.10;2329.60;;;;;;5099126;28;20433;-84
2022/04/01 04:18:27;;;;;;;45.95;11.65;;;384.10;2329.60;;;;;;5098945;28;20021;-84
2022/04/01 04:21:10;;;;;;;42.50;13.35;;;384.10;2329.60;;;;;;5081888;28;20441;-83
2022/04/01 04:24:20;;;;;;;43.80;11.68;;;384.20;2329.60;;;;;;5116689;28;20023;-83
2022/04/01 04:26:53;;;;;;;39.55;12.43;;;384.20;2329.60;;;;;;5083146;28;20023;-83
2022/04/01 04:29:42;;;;;;;48.85;14.63;;;384.20;2329.60;;;;;;5116094;28;20028;-81
2022/04/01 04:32:53;;;;;;;44.40;13.07;;;384.20;2329.60;;;;;;5098775;28;20016;-82
2022/04/01 04:35:21;;;;;;;46.38;11.55;;;384.20;2329.60;;;;;;5098077;28;20032;-84
2022/04/01 04:38:10;;;;;;;44.70;12.13;;;384.20;2329.60;;;;;;5097967;28;20454;-83
2022/04/01 04:40:36;;;;;;;52.75;15.02;;;384.30;2329.60;;;;;;5116098;28;20042;-84
2022/04/01 04:43:05;;;;;;;52.20;15.25;;;384.40;2329.60;;;;;;5081162;28;20375;-81
2022/04/01 04:45:32;;;;;;;63.28;15.23;;;384.30;2329.60;;;;;;5098510;28;20020;-84
2022/04/01 04:47:59;;;;;;;58.65;14.10;;;384.40;2329.60;;;;;;5098127;28;20024;-83
2022/04/01 04:50:25;;;;;;;51.85;15.18;;;359.00;2329.60;;;;;;5096912;28;20028;-85
2022/04/01 04:53:14;;;;;;;38.90;12.95;;;384.20;2329.60;;;;;;5098275;28;20455;-80
2022/04/01 04:55:41;;;;;;;44.95;12.65;;;384.40;2329.60;;;;;;5098300;28;20020;-83
2022/04/01 04:58:11;;;;;;;58.20;13.30;;;384.40;2329.60;;;;;;5064606;28;20055;-82
2022/04/01 05:00:41;;;;;;;41.83;14.52;;;384.40;2329.60;;;;;;5097832;28;20352;-83
2022/04/01 05:03:52;;;;;;;55.15;16.63;;;384.40;2329.60;;;;;;5098092;28;20020;-83
2022/04/01 05:06:28;;;;;;;61.22;18.90;;;384.40;2329.60;;;;;;5098078;28;20019;-83
2022/04/01 05:09:15;;;;;;;69.53;26.10;;;384.40;2329.60;;;;;;5081228;28;20020;-81
2022/04/01 05:12:00;;;;;;;52.65;19.23;;;384.40;2329.60;;;;;;5082188;28;20020;-80
2022/04/01 05:14:56;;;;;;;37.47;11.75;;;384.40;2329.60;;;;;;5114779;28;20077;-79
2022/04/01 05:17:53;;;;;;;47.53;13.80;;;384.50;2329.60;;;;;;5097761;28;20072;-82
2022/04/01 05:20:28;;;;;;;48.33;13.00;;;384.60;2329.60;;;;;;5097799;28;20016;-83
2022/04/01 05:23:25;;;;;;;59.88;16.45;;;384.50;2329.60;;;;;;5096400;28;20032;-82
2022/04/01 05:26:25;;;;;;;49.80;14.70;;;384.70;2329.60;;;;;;5081266;28;20445;-83
2022/04/01 05:29:02;;;;;;;50.78;11.82;;;384.60;2329.60;;;;;;5079311;28;20643;-83
2022/04/01 05:31:56;;;;;;;46.35;11.88;;;384.60;2329.60;;;;;;5097682;28;20456;-81
2022/04/01 05:34:36;;;;;;;49.70;13.35;;;384.60;2329.60;;;;;;5080161;28;20547;-82
2022/04/01 05:37:03;;;;;;;48.33;12.68;;;384.70;2329.60;;;;;;5097390;28;20073;-83
2022/04/01 05:39:35;;;;;;;56.95;15.18;;;384.60;2329.60;;;;;;5097981;28;20412;-83
2022/04/01 05:42:27;;;;;;;60.40;20.50;;;384.60;2329.60;;;;;;5098186;28;20011;-83
2022/04/01 05:44:58;;;;;;;48.05;15.75;;;384.60;2329.60;;;;;;5115505;28;20047;-82
2022/04/01 05:47:30;;;;;;;55.58;16.55;;;384.60;2329.60;;;;;;5097383;28;20020;-83
2022/04/01 05:50:09;;;;;;;60.22;16.55;;;384.60;2329.60;;;;;;5096913;28;20030;-82
2022/04/01 05:52:37;;;;;;;44.97;13.30;;;384.60;2329.60;;;;;;5097076;28;20074;-83
2022/04/01 05:55:04;;;;;;;40.97;11.93;;;384.60;2329.60;;;;;;5097053;28;20012;-80
2022/04/01 05:57:30;;;;;;;37.42;12.35;;;384.50;2329.60;;;;;;5096478;28;20016;-83
2022/04/01 05:59:58;;;;;;;46.30;14.13;;;384.60;2329.60;;;;;;5097001;28;20020;-83
2022/04/01 06:02:47;;;;;;;54.63;21.55;;;384.70;2329.60;;;;;;5097114;28;20019;-82
2022/04/01 06:05:49;;;;;;;59.28;21.00;;;384.50;2329.60;;;;;;5100392;28;20030;-79
2022/04/01 06:08:37;;;;;;;58.45;20.38;;;384.50;2329.60;;;;;;5099626;28;20115;-84
2022/04/01 06:11:20;;;;;;;48.47;20.70;;;384.20;2329.60;;;;;;5096471;28;20019;-84
2022/04/01 06:15:18;;;;;;;60.85;21.55;;;384.00;2329.60;;;;;;5096710;28;20536;-85
2022/04/01 06:18:11;;;;;;;57.72;22.77;;;359.30;2329.60;;;;;;5083156;28;20370;-84
2022/04/01 06:20:59;;;;;;;53.90;24.17;;;359.20;2329.60;;;;;;5103719;28;20363;-84
2022/04/01 06:23:51;;;;;;;69.95;28.58;;;359.10;2329.60;;;;;;5103425;28;20468;-83
2022/04/01 06:26:19;;;;;;;55.63;24.10;;;359.00;2329.60;;;;;;5080216;28;20121;-83
2022/04/01 06:29:16;;;;;;;43.47;16.25;;;358.90;2329.60;;;;;;5096445;28;20043;-83
2022/04/01 06:31:57;;;;;;;34.47;13.73;;;358.90;2329.60;;;;;;5096286;28;20022;-83
2022/04/01 06:34:38;;;;;;;34.10;11.57;;;358.90;2329.60;;;;;;5080911;28;20032;-83
2022/04/01 06:37:20;;;;;;;20.02;7.35;;;358.90;2329.60;;;;;;5096496;28;20464;-83
2022/04/01 06:40:21;;;;;;;43.17;21.20;;;359.00;2329.60;;;;;;5096191;28;20459;-84
2022/04/01 06:43:01;;;;;;;29.25;11.77;;;359.00;2329.60;;;;;;5079415;28;20042;-83
2022/04/01 06:46:00;;;;;;;24.50;9.77;;;358.90;2329.60;;;;;;5095328;28;20034;-84
2022/04/01 06:48:41;;;;;;;;;;;;;;;;;;;;;
2022/04/01 06:51:58;;;;;;;;;;;;;;;;;;;;;
2022/04/01 06:54:31;;;;;;;31.27;11.18;;;358.80;2329.60;;;;;;5109560;28;20030;-84
2022/04/01 06:57:05;;;;;;;25.70;13.90;;;358.60;2329.60;;;;;;5096942;28;20015;-82
2022/04/01 07:03:46;;;;;;;12.93;7.13;;;358.60;2329.60;;;;;;4992447;28;20493;-82
2022/04/01 07:06:17;;;;;;;19.23;10.27;;;358.60;2329.60;;;;;;4970560;28;20446;-80
2022/04/01 07:09:04;;;;;;;24.77;12.88;;;358.40;2329.60;;;;;;5079352;28;20081;-83
2022/04/01 07:30:09;;;;;;;;;;;;;;;;;;;;;
2022/04/01 07:33:10;;;;;;;;;;;;;;;;;;;;;
2022/04/01 07:36:43;;;;;;;17.50;8.10;;;333.40;2329.60;;;;;;4995623;28;20046;-83
2022/04/01 07:43:10;;;;;;;;;;;;;;;;;;;;;
2022/04/01 07:46:04;;;;;;;15.70;8.75;;;333.50;2329.60;;;;;;4964588;28;20024;-82
2022/04/01 07:49:00;;;;;;;14.30;6.55;;;333.70;2329.60;;;;;;4978270;28;20038;-78
2022/04/01 07:51:45;;;;;;;13.60;7.63;;;358.60;2329.60;;;;;;4919718;28;20034;-83
2022/04/01 07:54:17;;;;;;;11.15;5.57;;;358.80;2329.60;;;;;;5069136;28;20031;-83
2022/04/01 08:00:25;;;;;;;10.32;5.22;;;359.10;2329.60;;;;;;5096837;28;20015;-88
2022/04/01 08:03:41;;;;;;;13.75;4.95;;;359.20;2329.60;;;;;;5063488;28;20028;-86
2022/04/01 08:06:23;;;;;;;10.57;4.97;;;384.00;2329.60;;;;;;5093825;28;20077;-81
2022/04/01 08:09:39;;;;;;;12.30;5.53;;;384.10;2329.60;;;;;;5078900;28;20032;-87
2022/04/01 08:29:14;;;;;;;10.50;3.22;;;384.90;2329.60;;;;;;5398442;23;20115;-87
2022/04/01 08:32:23;;;;;;;5.97;3.72;;;409.70;2355.20;;;;;;5036209;28;20033;-89
2022/04/01 08:35:58;;;;;;;7.78;4.00;;;409.80;2355.20;;;;;;5014923;28;20022;-88
2022/04/01 08:39:24;;;;;;;10.32;6.82;;;410.00;2355.20;;;;;;4998478;28;20026;-88
2022/04/01 08:42:32;;;;;;;10.63;4.47;;;410.20;2355.20;;;;;;4937599;29;20027;-87
2022/04/01 08:45:44;;;;;;;10.63;4.90;;;410.40;2355.20;;;;;;4937346;29;20056;-91
2022/04/01 08:48:14;;;;;;;16.48;8.68;;;410.40;2355.20;;;;;;4935872;29;20119;-86
2022/04/01 08:51:40;;;;;;;15.02;8.10;;;410.50;2355.20;;;;;;4921452;29;20023;-87
2022/04/01 08:54:08;;;;;;;14.75;5.60;;;410.50;2355.20;;;;;;4937142;29;20049;-88
2022/04/01 08:56:35;;;;;;;21.40;8.52;;;410.30;2355.20;;;;;;4937303;29;20059;-86
2022/04/01 08:59:28;;;;;;;15.35;6.55;;;410.30;2355.20;;;;;;4935462;28;20031;-90
2022/04/01 09:02:01;;;;;;;;;;;410.40;2355.20;;;;;;4944828;28;20526;-85
2022/04/01 09:04:27;;;;;;;;;;;410.50;2355.20;;;;;;4959272;28;20024;-86
2022/04/01 09:06:53;;;;;;;13.85;6.95;;;410.50;2355.20;;;;;;4974829;28;20382;-85
2022/04/01 09:09:26;;;;;;;14.68;6.80;;;435.20;2355.20;;;;;;4975204;28;20015;-85
2022/04/01 09:12:49;;;;;;;12.75;7.38;;;435.30;2355.20;;;;;;4975320;28;20126;-87
2022/04/01 09:15:21;;;;;;;12.75;7.95;;;410.40;2355.20;;;;;;4959553;28;20182;-86
2022/04/01 09:17:49;;;;;;;22.58;11.80;;;435.60;2355.20;;;;;;5023085;28;20032;-85
2022/04/01 09:20:15;;;;;;;19.38;10.18;;;435.80;2355.20;;;;;;5031159;28;20029;-85
2022/04/01 09:22:43;;;;;;;21.17;10.75;;;435.60;2355.20;;;;;;5035518;28;20022;-87
2022/04/01 09:25:15;;;;;;;15.20;8.93;;;435.60;2355.20;;;;;;5018215;28;20032;-86
2022/04/01 09:27:50;;;;;;;19.27;8.83;;;435.80;2355.20;;;;;;5019053;28;20523;-86
2022/04/01 09:30:40;;;;;;;16.75;8.52;;;435.70;2355.20;;;;;;5016880;28;20021;-84
2022/04/01 09:33:06;;;;;;;15.23;7.97;;;435.70;2355.20;;;;;;5017399;28;20029;-84
2022/04/01 09:35:33;;;;;;;21.00;9.25;;;435.60;2355.20;;;;;;5017573;28;20070;-84
2022/04/01 09:38:02;;;;;;;19.05;8.60;;;435.60;2355.20;;;;;;5017885;28;20043;-84
2022/04/01 09:40:28;;;;;;;18.13;8.38;;;435.60;2355.20;;;;;;5017808;28;20128;-84
2022/04/01 09:42:57;;;;;;;16.45;8.65;;;435.50;2355.20;;;;;;5017458;28;20022;-87
2022/04/01 09:45:31;;;;;;;21.13;8.70;;;435.50;2355.20;;;;;;5035646;28;20029;-86
2022/04/01 09:48:08;;;;;;;19.17;8.57;;;435.40;2355.20;;;;;;5035011;28;20021;-85
2022/04/01 09:50:42;;;;;;;18.13;10.00;;;435.30;2355.20;;;;;;5017257;28;20044;-86
2022/04/01 09:53:16;;;;;;;16.42;8.43;;;435.30;2355.20;;;;;;5017407;28;20018;-83
2022/04/01 09:55:45;;;;;;;15.65;8.10;;;435.30;2355.20;;;;;;5017151;28;20397;-86
2022/04/01 09:58:11;;;;;;;22.73;8.80;;;435.30;2355.20;;;;;;5016343;28;20013;-85
2022/04/01 10:00:47;;;;;;;21.80;9.65;;;435.20;2355.20;;;;;;5017267;28;20029;-83
2022/04/01 10:03:23;;;;;;;15.25;8.32;;;435.20;2355.20;;;;;;5016963;28;20032;-83
2022/04/01 10:05:55;;;;;;;28.48;14.60;;;435.30;2355.20;;;;;;5017442;28;20025;-79
2022/04/01 10:08:22;;;;;;;;;;;435.30;2355.20;;;;;;5017522;28;20021;-83
2022/04/01 10:10:48;;;;;;;16.33;8.30;;;435.40;2355.20;;;;;;5016668;28;19901;-84
2022/04/01 10:13:37;;;;;;;15.85;7.10;;;435.30;2355.20;;;;;;5016727;28;20030;-84
2022/04/01 10:16:08;;;;;;;16.77;10.73;;;435.30;2355.20;;;;;;5016564;28;20526;-81
2022/04/01 10:18:34;;;;;;;34.20;24.42;;;435.30;2355.20;;;;;;5016347;28;20029;-84
2022/04/01 10:21:03;;;;;;;19.23;11.43;;;435.30;2355.20;;;;;;5016683;28;20021;-84
2022/04/01 10:23:33;;;;;;;28.02;18.48;;;435.30;2355.20;;;;;;5000565;28;20033;-82
2022/04/01 10:26:08;;;;;;;12.25;7.00;;;435.50;2355.20;;;;;;5016745;28;20057;-84
2022/04/01 10:28:34;;;;;;;11.55;5.32;;;435.50;2355.20;;;;;;5016510;28;20041;-84
2022/04/01 10:31:03;;;;;;;9.65;6.53;;;435.50;2355.20;;;;;;5016412;28;20021;-85
2022/04/01 10:33:35;;;;;;;16.70;7.20;;;435.60;2355.20;;;;;;5016416;28;20036;-83
2022/04/01 10:36:22;;;;;;;13.57;6.18;;;435.90;2355.20;;;;;;5016748;28;20030;-85
2022/04/01 10:38:49;;;;;;;13.68;5.97;;;460.90;2380.80;;;;;;5006127;28;20042;-84
2022/04/01 10:41:16;;;;;;;18.60;6.47;;;461.40;2380.80;;;;;;5016389;28;20442;-83
2022/04/01 10:43:50;;;;;;;12.77;4.18;;;486.40;2380.80;;;;;;5016611;28;20108;-84
2022/04/01 10:46:17;;;;;;;20.85;5.75;;;486.40;2380.80;;;;;;5034423;28;20052;-82
2022/04/01 10:52:05;;;;;;;42.80;21.60;;;461.50;2380.80;;;;;;5034121;28;20052;-83
2022/04/01 10:54:32;;;;;;;19.08;8.90;;;461.60;2380.80;;;;;;5016430;28;20026;-83
2022/04/01 10:57:08;;;;;;;18.65;8.60;;;486.70;2380.80;;;;;;5028831;28;20033;-79
2022/04/01 10:59:43;;;;;;;30.08;15.80;;;486.60;2380.80;;;;;;5039849;28;20021;-78
2022/04/01 11:02:13;;;;;;;16.65;7.47;;;486.70;2380.80;;;;;;5022886;28;20037;-82
2022/04/01 11:04:44;;;;;;;20.33;9.63;;;486.60;2380.80;;;;;;5016460;28;20022;-81
2022/04/01 11:07:22;;;;;;;26.45;10.75;;;486.50;2380.80;;;;;;5016291;28;20037;-85
2022/04/01 11:09:53;;;;;;;28.90;13.25;;;486.40;2380.80;;;;;;5015888;28;20477;-83
2022/04/01 11:12:19;;;;;;;21.80;9.15;;;486.40;2380.80;;;;;;5016084;28;20024;-82
2022/04/01 11:14:56;;;;;;;26.73;14.07;;;486.40;2380.80;;;;;;5016267;28;20041;-82
2022/04/01 11:17:51;;;;;;;20.63;10.02;;;461.70;2380.80;;;;;;5034081;28;20030;-82
2022/04/01 11:20:25;;;;;;;15.35;7.72;;;461.60;2380.80;;;;;;5015711;28;20022;-84
2022/04/01 11:22:56;;;;;;;31.00;17.30;;;461.70;2380.80;;;;;;5016523;28;20025;-82
2022/04/01 11:25:22;;;;;;;24.92;8.88;;;487.10;2380.80;;;;;;5016251;28;20017;-83
2022/04/01 11:27:50;;;;;;;18.33;9.55;;;512.10;2380.80;;;;;;5014641;28;20038;-80
2022/04/01 11:30:21;;;;;;;21.05;11.75;;;512.20;2380.80;;;;;;5014732;28;20250;-77
2022/04/01 11:32:56;;;;;;;20.63;7.45;;;512.90;2150.40;;;;;;5015338;28;20036;-77
2022/04/01 11:35:25;;;;;;;25.45;8.93;;;537.60;2150.40;;;;;;5016088;28;20458;-79
2022/04/01 11:37:51;;;;;;;16.17;7.93;;;538.10;2176.00;;;;;;5015957;28;20112;-77
2022/04/01 11:40:18;;;;;;;24.17;10.32;;;538.50;2022.40;;;;;;5015564;28;20030;-79
2022/04/01 11:43:06;;;;;;;17.80;7.55;;;563.40;2073.60;;;;;;5015829;28;20034;-80
2022/04/01 11:45:34;;;;;;;17.92;9.73;;;563.20;2048.00;;;;;;5015835;28;20458;-79
2022/04/01 11:48:12;;;;;;;24.23;12.07;;;538.40;2048.00;;;;;;5015822;28;20079;-78
2022/04/01 11:50:43;;;;;;;20.13;6.38;;;538.40;2048.00;;;;;;5033598;28;20022;-79
2022/04/01 11:53:18;;;;;;;12.90;4.90;;;538.50;2048.00;;;;;;5015714;28;20025;-78
2022/04/01 11:55:45;;;;;;;14.07;3.88;;;538.20;1996.80;;;;;;5015566;28;20026;-79
2022/04/01 11:58:11;;;;;;;17.13;6.80;;;538.00;2048.00;;;;;;5016090;28;20025;-81
2022/04/01 12:00:37;;;;;;;20.80;8.50;;;537.90;2022.40;;;;;;5015953;28;20025;-79
2022/04/01 12:03:07;;;;;;;17.27;8.23;;;538.20;2022.40;;;;;;5016038;28;20025;-83
2022/04/01 12:05:33;;;;;;;14.25;5.10;;;563.20;2022.40;;;;;;5016058;28;20021;-81
2022/04/01 12:10:56;;;;;;;22.77;5.15;;;564.10;1971.20;;;;;;5033891;28;20036;-81
2022/04/01 12:13:24;;;;;;;14.95;4.05;;;563.70;1971.20;;;;;;5015624;28;20076;-83
2022/04/01 12:15:55;;;;;;;29.25;11.20;;;563.70;1971.20;;;;;;5015667;28;20052;-82
2022/04/01 12:18:27;;;;;;;26.50;12.70;;;564.00;1971.20;;;;;;5015795;28;20072;-80
2022/04/01 12:20:57;;;;;;;16.67;7.60;;;564.00;1971.20;;;;;;5034195;28;20017;-80
2022/04/01 12:23:26;;;;;;;13.07;4.40;;;588.90;1945.60;;;;;;5019546;28;20465;-84
2022/04/01 12:25:54;;;;;;;10.93;4.10;;;564.00;1920.00;;;;;;5019255;28;20369;-81
2022/04/01 12:28:24;;;;;;;14.65;6.93;;;588.80;1894.40;;;;;;5019064;28;20053;-80
2022/04/01 12:30:55;;;;;;;11.98;4.50;;;589.20;1868.80;;;;;;5023336;28;20051;-81
2022/04/01 12:33:29;;;;;;;9.10;3.42;;;589.20;1817.60;;;;;;5023128;28;20163;-79
2022/04/01 12:35:58;;;;;;;14.23;5.03;;;563.70;1817.60;;;;;;5018962;28;20017;-84
2022/04/01 12:38:26;;;;;;;15.18;10.32;;;563.70;1843.20;;;;;;5019049;28;20022;-84
2022/04/01 12:40:57;;;;;;;15.50;5.97;;;563.50;1843.20;;;;;;5036110;28;20100;-80
2022/04/01 12:43:46;;;;;;;19.33;5.43;;;538.50;1843.20;;;;;;5018556;28;20079;-82
2022/04/01 12:46:25;;;;;;;14.23;4.82;;;538.30;1868.80;;;;;;5018752;28;20022;-82
2022/04/01 12:49:34;;;;;;;9.30;3.45;;;538.10;1817.60;;;;;;5019106;28;20389;-82
2022/04/01 12:52:27;;;;;;;8.43;4.00;;;538.00;1843.20;;;;;;5018877;28;20020;-81
2022/04/01 12:55:02;;;;;;;11.75;4.38;;;538.00;1843.20;;;;;;5015184;28;20064;-81
2022/04/01 12:57:30;;;;;;;9.70;3.85;;;538.50;1817.60;;;;;;5036588;28;20014;-82
2022/04/01 12:59:58;;;;;;;10.73;3.22;;;563.20;1817.60;;;;;;5018678;28;20025;-78
2022/04/01 13:02:25;;;;;;;10.80;4.00;;;563.30;1792.00;;;;;;5018198;28;20469;-81
2022/04/01 13:04:53;;;;;;;9.27;4.22;;;538.20;1792.00;;;;;;5018778;28;20462;-83
2022/04/01 13:07:55;;;;;;;10.38;3.72;;;538.50;1817.60;;;;;;5018614;28;20022;-83
2022/04/01 13:10:23;;;;;;;9.63;3.75;;;538.50;1766.40;;;;;;5017898;28;20041;-84
2022/04/01 13:15:54;;;;;;;12.80;4.60;;;538.30;1817.60;;;;;;5036302;28;20040;-83
2022/04/01 13:18:23;;;;;;;9.65;4.07;;;538.20;1792.00;;;;;;5017974;28;20021;-83
2022/04/01 13:20:49;;;;;;;12.57;4.32;;;538.00;1766.40;;;;;;5018545;28;20076;-84
2022/04/01 13:23:17;;;;;;;10.55;4.13;;;537.80;1766.40;;;;;;5018252;28;20021;-84
2022/04/01 13:25:42;;;;;;;9.60;3.03;;;538.00;1766.40;;;;;;5018297;28;20454;-81
2022/04/01 13:28:11;;;;;;;9.80;3.92;;;538.10;1740.80;;;;;;5035623;28;20068;-84
2022/04/01 13:30:37;;;;;;;8.43;3.33;;;538.00;1740.80;;;;;;5018376;28;20025;-81
2022/04/01 13:33:03;;;;;;;12.85;4.50;;;537.90;1740.80;;;;;;5018287;28;20022;-82
2022/04/01 13:35:30;;;;;;;11.60;5.40;;;538.40;1715.20;;;;;;5017947;28;20025;-83
2022/04/01 13:37:56;;;;;;;9.95;5.07;;;563.20;1740.80;;;;;;5018420;28;20017;-83
2022/04/01 13:40:22;;;;;;;8.98;3.60;;;564.10;1689.60;;;;;;5018214;28;20022;-82
2022/04/01 13:42:48;;;;;;;8.35;3.83;;;588.90;1664.00;;;;;;5017952;28;20438;-82
2022/04/01 13:45:14;;;;;;;14.07;6.78;;;589.40;1664.00;;;;;;5018098;28;20052;-81
2022/04/01 13:47:40;;;;;;;9.13;4.55;;;589.20;1664.00;;;;;;5018073;28;20025;-80
2022/04/01 13:50:07;;;;;;;15.70;7.22;;;564.10;1689.60;;;;;;5017567;28;20022;-82
2022/04/01 13:52:32;;;;;;;17.50;9.57;;;588.90;1664.00;;;;;;5017655;28;20032;-83
2022/04/01 13:55:02;;;;;;;16.65;8.35;;;564.00;1664.00;;;;;;5017512;28;20033;-82
2022/04/01 13:57:27;;;;;;;10.93;5.03;;;588.80;1664.00;;;;;;5034929;28;20108;-81
2022/04/01 13:59:53;;;;;;;22.58;11.40;;;588.80;1664.00;;;;;;5017369;28;20037;-81
2022/04/01 14:02:19;;;;;;;12.85;4.88;;;564.00;1689.60;;;;;;5034927;28;20449;-83
2022/04/01 14:04:45;;;;;;;19.55;7.78;;;563.50;1689.60;;;;;;5017583;28;20029;-83
2022/04/01 14:07:11;;;;;;;15.02;6.43;;;538.50;1689.60;;;;;;5017564;28;20022;-81
2022/04/01 14:09:39;;;;;;;22.65;8.23;;;538.30;1715.20;;;;;;5017289;28;20017;-80